sensor_id;sensor_type;location;lat;lon;timestamp;pressure;altitude;pressure_sealevel;temperature;humidity
2188;BME280;1100;52.014;8.540;2023-11-18T00:02:15;100982.59;;;1.83;100.00
2188;BME280;1100;52.014;8.540;2023-11-18T00:04:40;100977.47;;;1.82;100.00
2188;BME280;1100;52.014;8.540;2023-11-18T00:07:06;100975.06;;;1.80;100.00
2188;BME280;1100;52.014;8.540;2023-11-18T00:09:31;100972.75;;;1.82;100.00
2188;BME280;1100;52.014;8.540;2023-11-18T00:11:56;100976.56;;;1.78;100.00
2188;BME280;1100;52.014;8.540;2023-11-18T00:14:22;100974.19;;;1.76;100.00
2188;BME280;1100;52.014;8.540;2023-11-18T00:16:47;100971.78;;;1.74;100.00
2188;BME280;1100;52.014;8.540;2023-11-18T00:19:12;100974.13;;;1.72;100.00
2188;BME280;1100;52.014;8.540;2023-11-18T00:21:38;100980.72;;;1.71;100.00
2188;BME280;1100;52.014;8.540;2023-11-18T00:24:04;100981.53;;;1.72;100.00
2188;BME280;1100;52.014;8.540;2023-11-18T00:26:30;100982.34;;;1.72;100.00
2188;BME280;1100;52.014;8.540;2023-11-18T00:28:55;100977.28;;;1.74;100.00
2188;BME280;1100;52.014;8.540;2023-11-18T00:31:21;100987.88;;;1.76;100.00
2188;BME280;1100;52.014;8.540;2023-11-18T00:33:46;100984.38;;;1.76;100.00
2188;BME280;1100;52.014;8.540;2023-11-18T00:36:11;100981.34;;;1.81;100.00
2188;BME280;1100;52.014;8.540;2023-11-18T00:38:37;100983.31;;;1.80;100.00
2188;BME280;1100;52.014;8.540;2023-11-18T00:41:03;100992.38;;;1.84;100.00
2188;BME280;1100;52.014;8.540;2023-11-18T00:43:28;100988.56;;;1.89;100.00
2188;BME280;1100;52.014;8.540;2023-11-18T00:45:54;100990.16;;;1.90;100.00
2188;BME280;1100;52.014;8.540;2023-11-18T00:48:19;100993.25;;;1.89;100.00
2188;BME280;1100;52.014;8.540;2023-11-18T00:50:45;100993.19;;;1.85;100.00
2188;BME280;1100;52.014;8.540;2023-11-18T00:53:10;100986.47;;;1.82;100.00
2188;BME280;1100;52.014;8.540;2023-11-18T00:55:36;100986.03;;;1.80;100.00
2188;BME280;1100;52.014;8.540;2023-11-18T00:58:01;100991.53;;;1.80;100.00
2188;BME280;1100;52.014;8.540;2023-11-18T01:00:26;100989.91;;;1.79;100.00
2188;BME280;1100;52.014;8.540;2023-11-18T01:02:52;100996.28;;;1.83;100.00
2188;BME280;1100;52.014;8.540;2023-11-18T01:05:19;100992.03;;;1.86;100.00
2188;BME280;1100;52.014;8.540;2023-11-18T01:07:45;101000.72;;;1.88;100.00
2188;BME280;1100;52.014;8.540;2023-11-18T01:10:11;100995.66;;;1.90;100.00
2188;BME280;1100;52.014;8.540;2023-11-18T01:12:37;100994.50;;;1.91;100.00
2188;BME280;1100;52.014;8.540;2023-11-18T01:15:03;101003.59;;;1.95;100.00
2188;BME280;1100;52.014;8.540;2023-11-18T01:17:29;101001.22;;;1.94;100.00
2188;BME280;1100;52.014;8.540;2023-11-18T01:19:56;100999.63;;;1.93;100.00
2188;BME280;1100;52.014;8.540;2023-11-18T01:22:21;100998.84;;;1.92;100.00
2188;BME280;1100;52.014;8.540;2023-11-18T01:24:47;101003.97;;;1.94;100.00
2188;BME280;1100;52.014;8.540;2023-11-18T01:27:12;101007.88;;;1.93;100.00
2188;BME280;1100;52.014;8.540;2023-11-18T01:29:38;101014.66;;;1.99;100.00
2188;BME280;1100;52.014;8.540;2023-11-18T01:32:07;101020.22;;;2.03;100.00
2188;BME280;1100;52.014;8.540;2023-11-18T01:34:35;101022.94;;;2.03;100.00
2188;BME280;1100;52.014;8.540;2023-11-18T01:37:04;101018.63;;;2.02;100.00
2188;BME280;1100;52.014;8.540;2023-11-18T01:39:35;101016.25;;;2.00;100.00
2188;BME280;1100;52.014;8.540;2023-11-18T01:42:01;101018.19;;;1.99;100.00
2188;BME280;1100;52.014;8.540;2023-11-18T01:44:28;101022.19;;;2.02;100.00
2188;BME280;1100;52.014;8.540;2023-11-18T01:46:57;101025.63;;;1.99;100.00
2188;BME280;1100;52.014;8.540;2023-11-18T01:49:23;101027.56;;;1.98;100.00
2188;BME280;1100;52.014;8.540;2023-11-18T01:51:52;101038.19;;;2.00;100.00
2188;BME280;1100;52.014;8.540;2023-11-18T01:54:18;101031.84;;;1.96;100.00
2188;BME280;1100;52.014;8.540;2023-11-18T01:56:47;101036.88;;;1.94;100.00
2188;BME280;1100;52.014;8.540;2023-11-18T01:59:13;101045.09;;;1.94;100.00
2188;BME280;1100;52.014;8.540;2023-11-18T02:01:51;101043.78;;;1.88;100.00
2188;BME280;1100;52.014;8.540;2023-11-18T02:04:18;101030.78;;;1.84;100.00
2188;BME280;1100;52.014;8.540;2023-11-18T02:06:45;101040.22;;;1.87;100.00
2188;BME280;1100;52.014;8.540;2023-11-18T02:09:11;101039.34;;;1.83;100.00
2188;BME280;1100;52.014;8.540;2023-11-18T02:11:45;101037.13;;;1.89;100.00
2188;BME280;1100;52.014;8.540;2023-11-18T02:14:16;101034.47;;;1.92;100.00
2188;BME280;1100;52.014;8.540;2023-11-18T02:16:44;101026.34;;;1.96;100.00
2188;BME280;1100;52.014;8.540;2023-11-18T02:19:20;101027.47;;;1.95;100.00
2188;BME280;1100;52.014;8.540;2023-11-18T02:21:50;101023.66;;;1.99;100.00
2188;BME280;1100;52.014;8.540;2023-11-18T02:24:30;101016.69;;;2.02;100.00
2188;BME280;1100;52.014;8.540;2023-11-18T02:27:00;101019.34;;;1.98;100.00
2188;BME280;1100;52.014;8.540;2023-11-18T02:29:32;101027.41;;;1.91;100.00
2188;BME280;1100;52.014;8.540;2023-11-18T02:35:13;101027.44;;;1.75;100.00
2188;BME280;1100;52.014;8.540;2023-11-18T02:37:39;101023.09;;;1.74;100.00
2188;BME280;1100;52.014;8.540;2023-11-18T02:40:07;101027.63;;;1.66;100.00
2188;BME280;1100;52.014;8.540;2023-11-18T02:42:36;101026.28;;;1.60;100.00
2188;BME280;1100;52.014;8.540;2023-11-18T02:45:05;101021.31;;;1.49;100.00
2188;BME280;1100;52.014;8.540;2023-11-18T02:47:32;101025.47;;;1.43;100.00
2188;BME280;1100;52.014;8.540;2023-11-18T02:49:57;101035.09;;;1.37;100.00
2188;BME280;1100;52.014;8.540;2023-11-18T02:52:31;101023.97;;;1.30;100.00
2188;BME280;1100;52.014;8.540;2023-11-18T02:54:56;101027.41;;;1.27;100.00
2188;BME280;1100;52.014;8.540;2023-11-18T02:57:21;101013.53;;;1.19;100.00
2188;BME280;1100;52.014;8.540;2023-11-18T02:59:46;101013.34;;;1.12;100.00
2188;BME280;1100;52.014;8.540;2023-11-18T03:02:12;101020.56;;;1.04;100.00
2188;BME280;1100;52.014;8.540;2023-11-18T03:04:37;101013.66;;;0.94;100.00
2188;BME280;1100;52.014;8.540;2023-11-18T03:07:03;101010.38;;;0.89;100.00
2188;BME280;1100;52.014;8.540;2023-11-18T03:09:28;101010.63;;;0.83;100.00
2188;BME280;1100;52.014;8.540;2023-11-18T03:11:53;101009.75;;;0.79;100.00
2188;BME280;1100;52.014;8.540;2023-11-18T03:14:20;101011.59;;;0.75;100.00
2188;BME280;1100;52.014;8.540;2023-11-18T03:16:45;101015.03;;;0.72;100.00
2188;BME280;1100;52.014;8.540;2023-11-18T03:19:11;101014.22;;;0.71;100.00
2188;BME280;1100;52.014;8.540;2023-11-18T03:21:36;101010.69;;;0.71;100.00
2188;BME280;1100;52.014;8.540;2023-11-18T03:24:02;101016.50;;;0.69;100.00
2188;BME280;1100;52.014;8.540;2023-11-18T03:26:27;101007.50;;;0.69;100.00
2188;BME280;1100;52.014;8.540;2023-11-18T03:28:52;101006.38;;;0.70;100.00
2188;BME280;1100;52.014;8.540;2023-11-18T03:31:18;100999.72;;;0.71;100.00
2188;BME280;1100;52.014;8.540;2023-11-18T03:33:44;101004.31;;;0.67;100.00
2188;BME280;1100;52.014;8.540;2023-11-18T03:36:10;100997.03;;;0.58;100.00
2188;BME280;1100;52.014;8.540;2023-11-18T03:38:37;101000.06;;;0.53;100.00
2188;BME280;1100;52.014;8.540;2023-11-18T03:41:02;100997.91;;;0.46;100.00
2188;BME280;1100;52.014;8.540;2023-11-18T03:43:28;101006.81;;;0.43;100.00
2188;BME280;1100;52.014;8.540;2023-11-18T03:45:53;100993.69;;;0.36;100.00
2188;BME280;1100;52.014;8.540;2023-11-18T03:48:22;101001.13;;;0.36;100.00
2188;BME280;1100;52.014;8.540;2023-11-18T03:50:47;100991.22;;;0.31;100.00
2188;BME280;1100;52.014;8.540;2023-11-18T03:53:12;100992.16;;;0.23;100.00
2188;BME280;1100;52.014;8.540;2023-11-18T03:55:38;100985.78;;;0.19;100.00
2188;BME280;1100;52.014;8.540;2023-11-18T03:58:03;100979.84;;;0.17;100.00
2188;BME280;1100;52.014;8.540;2023-11-18T04:00:28;100984.88;;;0.15;100.00
2188;BME280;1100;52.014;8.540;2023-11-18T04:02:58;100981.34;;;0.14;100.00
2188;BME280;1100;52.014;8.540;2023-11-18T04:05:24;100983.97;;;0.10;100.00
2188;BME280;1100;52.014;8.540;2023-11-18T04:07:49;100982.38;;;0.09;100.00
2188;BME280;1100;52.014;8.540;2023-11-18T04:10:15;100982.16;;;0.02;100.00
2188;BME280;1100;52.014;8.540;2023-11-18T04:12:40;100975.00;;;-0.03;100.00
2188;BME280;1100;52.014;8.540;2023-11-18T04:15:06;100976.47;;;-0.05;100.00
2188;BME280;1100;52.014;8.540;2023-11-18T04:17:32;100980.25;;;-0.10;100.00
2188;BME280;1100;52.014;8.540;2023-11-18T04:20:01;100969.31;;;-0.10;100.00
2188;BME280;1100;52.014;8.540;2023-11-18T04:22:29;100980.94;;;-0.13;100.00
2188;BME280;1100;52.014;8.540;2023-11-18T04:24:54;100973.50;;;-0.13;100.00
2188;BME280;1100;52.014;8.540;2023-11-18T04:27:20;100970.00;;;-0.13;100.00
2188;BME280;1100;52.014;8.540;2023-11-18T04:29:45;100966.81;;;-0.15;100.00
2188;BME280;1100;52.014;8.540;2023-11-18T04:32:11;100970.69;;;-0.16;100.00
2188;BME280;1100;52.014;8.540;2023-11-18T04:34:39;100969.88;;;-0.17;100.00
2188;BME280;1100;52.014;8.540;2023-11-18T04:37:04;100970.69;;;-0.16;100.00
2188;BME280;1100;52.014;8.540;2023-11-18T04:39:34;100971.47;;;-0.16;100.00
2188;BME280;1100;52.014;8.540;2023-11-18T04:41:59;100968.31;;;-0.18;100.00
2188;BME280;1100;52.014;8.540;2023-11-18T04:44:26;100959.19;;;-0.22;100.00
2188;BME280;1100;52.014;8.540;2023-11-18T04:46:52;100956.69;;;-0.27;100.00
2188;BME280;1100;52.014;8.540;2023-11-18T04:49:17;100935.41;;;-0.34;100.00
2188;BME280;1100;52.014;8.540;2023-11-18T04:51:42;100946.69;;;-0.35;100.00
2188;BME280;1100;52.014;8.540;2023-11-18T04:54:08;100941.09;;;-0.39;100.00
2188;BME280;1100;52.014;8.540;2023-11-18T04:56:34;100932.81;;;-0.43;100.00
2188;BME280;1100;52.014;8.540;2023-11-18T04:59:03;100937.00;;;-0.45;100.00
2188;BME280;1100;52.014;8.540;2023-11-18T05:01:30;100937.81;;;-0.45;100.00
2188;BME280;1100;52.014;8.540;2023-11-18T05:03:56;100935.75;;;-0.48;100.00
2188;BME280;1100;52.014;8.540;2023-11-18T05:06:21;100932.22;;;-0.48;100.00
2188;BME280;1100;52.014;8.540;2023-11-18T05:08:46;100926.31;;;-0.51;100.00
2188;BME280;1100;52.014;8.540;2023-11-18T05:11:12;100930.97;;;-0.51;100.00
2188;BME280;1100;52.014;8.540;2023-11-18T05:13:38;100918.47;;;-0.52;100.00
2188;BME280;1100;52.014;8.540;2023-11-18T05:16:05;100912.88;;;-0.56;100.00
2188;BME280;1100;52.014;8.540;2023-11-18T05:18:31;100915.50;;;-0.59;100.00
2188;BME280;1100;52.014;8.540;2023-11-18T05:21:01;100913.91;;;-0.60;100.00
2188;BME280;1100;52.014;8.540;2023-11-18T05:23:26;100916.19;;;-0.63;100.00
2188;BME280;1100;52.014;8.540;2023-11-18T05:25:54;100916.19;;;-0.63;100.00
2188;BME280;1100;52.014;8.540;2023-11-18T05:28:21;100914.59;;;-0.64;100.00
2188;BME280;1100;52.014;8.540;2023-11-18T05:30:47;100907.44;;;-0.68;100.00
2188;BME280;1100;52.014;8.540;2023-11-18T05:33:12;100896.84;;;-0.70;100.00
2188;BME280;1100;52.014;8.540;2023-11-18T05:35:42;100896.38;;;-0.72;100.00
2188;BME280;1100;52.014;8.540;2023-11-18T05:38:14;100906.53;;;-0.72;100.00
2188;BME280;1100;52.014;8.540;2023-11-18T05:40:41;100910.72;;;-0.75;100.00
2188;BME280;1100;52.014;8.540;2023-11-18T05:43:09;100908.66;;;-0.78;100.00
2188;BME280;1100;52.014;8.540;2023-11-18T05:45:41;100904.34;;;-0.79;100.00
2188;BME280;1100;52.014;8.540;2023-11-18T05:48:26;100899.34;;;-0.77;100.00
2188;BME280;1100;52.014;8.540;2023-11-18T05:50:51;100911.88;;;-0.76;100.00
2188;BME280;1100;52.014;8.540;2023-11-18T05:53:17;100904.13;;;-0.74;100.00
2188;BME280;1100;52.014;8.540;2023-11-18T05:55:42;100905.03;;;-0.70;100.00
2188;BME280;1100;52.014;8.540;2023-11-18T05:58:07;100904.34;;;-0.67;100.00
2188;BME280;1100;52.014;8.540;2023-11-18T06:00:37;100903.88;;;-0.69;100.00
2188;BME280;1100;52.014;8.540;2023-11-18T06:03:02;100902.31;;;-0.70;100.00
2188;BME280;1100;52.014;8.540;2023-11-18T06:05:27;100905.38;;;-0.71;100.00
2188;BME280;1100;52.014;8.540;2023-11-18T06:07:54;100916.75;;;-0.69;100.00
2188;BME280;1100;52.014;8.540;2023-11-18T06:10:19;100918.22;;;-0.72;100.00
2188;BME280;1100;52.014;8.540;2023-11-18T06:12:45;100908.56;;;-0.69;100.00
2188;BME280;1100;52.014;8.540;2023-11-18T06:15:12;100914.38;;;-0.71;100.00
2188;BME280;1100;52.014;8.540;2023-11-18T06:17:39;100913.91;;;-0.73;100.00
2188;BME280;1100;52.014;8.540;2023-11-18T06:20:05;100913.44;;;-0.75;100.00
2188;BME280;1100;52.014;8.540;2023-11-18T06:22:31;100911.53;;;-0.74;100.00
2188;BME280;1100;52.014;8.540;2023-11-18T06:24:56;100895.81;;;-0.78;100.00
2188;BME280;1100;52.014;8.540;2023-11-18T06:27:22;100890.69;;;-0.79;100.00
2188;BME280;1100;52.014;8.540;2023-11-18T06:29:49;100905.94;;;-0.78;100.00
2188;BME280;1100;52.014;8.540;2023-11-18T06:32:15;100908.00;;;-0.75;100.00
2188;BME280;1100;52.014;8.540;2023-11-18T06:34:41;100913.09;;;-0.73;100.00
2188;BME280;1100;52.014;8.540;2023-11-18T06:37:06;100923.25;;;-0.74;100.00
2188;BME280;1100;52.014;8.540;2023-11-18T06:39:32;100929.28;;;-0.68;100.00
2188;BME280;1100;52.014;8.540;2023-11-18T06:42:00;100930.50;;;-0.66;100.00
2188;BME280;1100;52.014;8.540;2023-11-18T06:44:26;100922.44;;;-0.62;100.00
2188;BME280;1100;52.014;8.540;2023-11-18T06:46:51;100920.28;;;-0.56;100.00
2188;BME280;1100;52.014;8.540;2023-11-18T06:49:17;100914.59;;;-0.51;100.00
2188;BME280;1100;52.014;8.540;2023-11-18T06:51:43;100918.56;;;-0.48;100.00
2188;BME280;1100;52.014;8.540;2023-11-18T06:54:09;100914.38;;;-0.46;100.00
2188;BME280;1100;52.014;8.540;2023-11-18T06:56:39;100915.59;;;-0.43;100.00
2188;BME280;1100;52.014;8.540;2023-11-18T06:59:07;100904.78;;;-0.40;100.00
2188;BME280;1100;52.014;8.540;2023-11-18T07:01:36;100904.44;;;-0.38;100.00
2188;BME280;1100;52.014;8.540;2023-11-18T07:04:02;100908.09;;;-0.34;100.00
2188;BME280;1100;52.014;8.540;2023-11-18T07:06:28;100905.00;;;-0.32;100.00
2188;BME280;1100;52.014;8.540;2023-11-18T07:08:54;100899.88;;;-0.34;100.00
2188;BME280;1100;52.014;8.540;2023-11-18T07:11:21;100907.75;;;-0.32;100.00
2188;BME280;1100;52.014;8.540;2023-11-18T07:13:47;100910.47;;;-0.32;100.00
2188;BME280;1100;52.014;8.540;2023-11-18T07:16:14;100913.53;;;-0.34;100.00
2188;BME280;1100;52.014;8.540;2023-11-18T07:18:40;100911.16;;;-0.35;100.00
2188;BME280;1100;52.014;8.540;2023-11-18T07:21:07;100915.94;;;-0.32;100.00
2188;BME280;1100;52.014;8.540;2023-11-18T07:23:34;100919.91;;;-0.30;100.00
2188;BME280;1100;52.014;8.540;2023-11-18T07:26:01;100910.94;;;-0.30;100.00
2188;BME280;1100;52.014;8.540;2023-11-18T07:28:27;100903.50;;;-0.30;100.00
2188;BME280;1100;52.014;8.540;2023-11-18T07:30:53;100905.13;;;-0.29;100.00
2188;BME280;1100;52.014;8.540;2023-11-18T07:33:19;100913.41;;;-0.25;100.00
2188;BME280;1100;52.014;8.540;2023-11-18T07:35:46;100915.81;;;-0.23;100.00
2188;BME280;1100;52.014;8.540;2023-11-18T07:38:13;100913.53;;;-0.21;100.00
2188;BME280;1100;52.014;8.540;2023-11-18T07:40:38;100914.00;;;-0.19;100.00
2188;BME280;1100;52.014;8.540;2023-11-18T07:43:14;100921.03;;;-0.18;100.00
2188;BME280;1100;52.014;8.540;2023-11-18T07:45:39;100928.19;;;-0.14;100.00
2188;BME280;1100;52.014;8.540;2023-11-18T07:48:09;100927.50;;;-0.10;100.00
2188;BME280;1100;52.014;8.540;2023-11-18T07:50:40;100924.78;;;-0.10;100.00
2188;BME280;1100;52.014;8.540;2023-11-18T07:53:09;100926.00;;;-0.08;100.00
2188;BME280;1100;52.014;8.540;2023-11-18T07:55:36;100914.38;;;-0.05;100.00
2188;BME280;1100;52.014;8.540;2023-11-18T07:58:08;100925.66;;;0.06;100.00
2188;BME280;1100;52.014;8.540;2023-11-18T08:00:40;100906.84;;;0.17;100.00
2188;BME280;1100;52.014;8.540;2023-11-18T08:03:12;100911.91;;;0.31;100.00
2188;BME280;1100;52.014;8.540;2023-11-18T08:05:39;100902.75;;;0.40;100.00
2188;BME280;1100;52.014;8.540;2023-11-18T08:08:06;100886.72;;;0.54;100.00
2188;BME280;1100;52.014;8.540;2023-11-18T08:10:32;100892.13;;;0.67;100.00
2188;BME280;1100;52.014;8.540;2023-11-18T08:12:58;100889.47;;;0.70;100.00
2188;BME280;1100;52.014;8.540;2023-11-18T08:15:24;100901.31;;;0.74;100.00
2188;BME280;1100;52.014;8.540;2023-11-18T08:17:52;100892.41;;;0.78;100.00
2188;BME280;1100;52.014;8.540;2023-11-18T08:20:17;100875.63;;;0.79;100.00
2188;BME280;1100;52.014;8.540;2023-11-18T08:22:43;100879.69;;;0.85;100.00
2188;BME280;1100;52.014;8.540;2023-11-18T08:25:12;100873.25;;;0.94;100.00
2188;BME280;1100;52.014;8.540;2023-11-18T08:27:39;100878.88;;;1.01;100.00
2188;BME280;1100;52.014;8.540;2023-11-18T08:30:05;100882.50;;;1.05;100.00
2188;BME280;1100;52.014;8.540;2023-11-18T08:32:36;100877.13;;;1.09;100.00
2188;BME280;1100;52.014;8.540;2023-11-18T08:35:01;100878.00;;;1.13;100.00
2188;BME280;1100;52.014;8.540;2023-11-18T08:37:26;100871.44;;;1.18;100.00
2188;BME280;1100;52.014;8.540;2023-11-18T08:39:53;100886.47;;;1.24;100.00
2188;BME280;1100;52.014;8.540;2023-11-18T08:42:18;100897.16;;;1.29;100.00
2188;BME280;1100;52.014;8.540;2023-11-18T08:44:44;100910.59;;;1.34;100.00
2188;BME280;1100;52.014;8.540;2023-11-18T08:47:13;100907.84;;;1.34;100.00
2188;BME280;1100;52.014;8.540;2023-11-18T08:49:38;100904.41;;;1.38;100.00
2188;BME280;1100;52.014;8.540;2023-11-18T08:52:05;100913.13;;;1.43;100.00
2188;BME280;1100;52.014;8.540;2023-11-18T08:54:35;100910.94;;;1.49;100.00
2188;BME280;1100;52.014;8.540;2023-11-18T08:57:06;100904.44;;;1.57;100.00
2188;BME280;1100;52.014;8.540;2023-11-18T08:59:49;100891.22;;;1.79;100.00
2188;BME280;1100;52.014;8.540;2023-11-18T09:02:17;100891.53;;;1.94;100.00
2188;BME280;1100;52.014;8.540;2023-11-18T09:04:43;100891.84;;;2.08;100.00
2188;BME280;1100;52.014;8.540;2023-11-18T09:07:09;100880.47;;;2.30;100.00
2188;BME280;1100;52.014;8.540;2023-11-18T09:09:35;100882.97;;;2.58;100.00
2188;BME280;1100;52.014;8.540;2023-11-18T09:12:01;100887.63;;;2.78;100.00
2188;BME280;1100;52.014;8.540;2023-11-18T09:14:28;100878.22;;;2.79;100.00
2188;BME280;1100;52.014;8.540;2023-11-18T09:16:54;100873.34;;;2.68;100.00
2188;BME280;1100;52.014;8.540;2023-11-18T09:19:27;100871.25;;;2.61;100.00
2188;BME280;1100;52.014;8.540;2023-11-18T09:21:52;100859.25;;;2.70;100.00
2188;BME280;1100;52.014;8.540;2023-11-18T09:24:17;100854.00;;;2.84;100.00
2188;BME280;1100;52.014;8.540;2023-11-18T09:26:45;100862.41;;;2.95;100.00
2188;BME280;1100;52.014;8.540;2023-11-18T09:29:13;100862.47;;;2.99;100.00
2188;BME280;1100;52.014;8.540;2023-11-18T09:31:43;100855.88;;;3.04;100.00
2188;BME280;1100;52.014;8.540;2023-11-18T09:34:08;100850.66;;;2.95;100.00
2188;BME280;1100;52.014;8.540;2023-11-18T09:36:41;100854.97;;;2.96;100.00
2188;BME280;1100;52.014;8.540;2023-11-18T09:39:08;100852.28;;;2.99;100.00
2188;BME280;1100;52.014;8.540;2023-11-18T09:41:34;100847.25;;;3.05;100.00
2188;BME280;1100;52.014;8.540;2023-11-18T09:44:00;100841.03;;;3.08;100.00
2188;BME280;1100;52.014;8.540;2023-11-18T09:46:28;100835.22;;;3.14;100.00
2188;BME280;1100;52.014;8.540;2023-11-18T09:51:43;100836.44;;;3.16;100.00
2188;BME280;1100;52.014;8.540;2023-11-18T09:54:19;100829.38;;;3.15;100.00
2188;BME280;1100;52.014;8.540;2023-11-18T09:57:09;100811.78;;;3.20;100.00
2188;BME280;1100;52.014;8.540;2023-11-18T10:00:06;100809.84;;;3.24;100.00
2188;BME280;1100;52.014;8.540;2023-11-18T10:02:50;100809.13;;;3.27;100.00
2188;BME280;1100;52.014;8.540;2023-11-18T10:05:17;100804.50;;;3.35;100.00
2188;BME280;1100;52.014;8.540;2023-11-18T10:07:46;100807.31;;;3.39;100.00
2188;BME280;1100;52.014;8.540;2023-11-18T10:10:15;100798.72;;;3.44;100.00
2188;BME280;1100;52.014;8.540;2023-11-18T10:12:44;100796.84;;;3.48;100.00
2188;BME280;1100;52.014;8.540;2023-11-18T10:15:13;100801.59;;;3.51;100.00
2188;BME280;1100;52.014;8.540;2023-11-18T10:17:42;100795.00;;;3.59;100.00
2188;BME280;1100;52.014;8.540;2023-11-18T10:20:22;100794.69;;;3.65;100.00
2188;BME280;1100;52.014;8.540;2023-11-18T10:23:05;100796.31;;;3.69;100.00
2188;BME280;1100;52.014;8.540;2023-11-18T10:25:31;100789.38;;;3.79;100.00
2188;BME280;1100;52.014;8.540;2023-11-18T10:28:00;100787.88;;;3.85;100.00
2188;BME280;1100;52.014;8.540;2023-11-18T10:30:27;100801.25;;;3.91;100.00
2188;BME280;1100;52.014;8.540;2023-11-18T10:32:59;100792.69;;;3.96;100.00
2188;BME280;1100;52.014;8.540;2023-11-18T10:35:37;100782.16;;;4.02;100.00
2188;BME280;1100;52.014;8.540;2023-11-18T10:38:02;100774.72;;;4.06;100.00
2188;BME280;1100;52.014;8.540;2023-11-18T10:40:31;100775.59;;;4.14;100.00
2188;BME280;1100;52.014;8.540;2023-11-18T10:43:00;100765.44;;;4.21;100.00
2188;BME280;1100;52.014;8.540;2023-11-18T10:45:26;100751.34;;;4.27;100.00
2188;BME280;1100;52.014;8.540;2023-11-18T10:47:53;100749.81;;;4.33;100.00
2188;BME280;1100;52.014;8.540;2023-11-18T10:50:21;100741.22;;;4.42;100.00
2188;BME280;1100;52.014;8.540;2023-11-18T10:52:47;100732.00;;;4.68;100.00
2188;BME280;1100;52.014;8.540;2023-11-18T10:55:13;100729.00;;;4.92;100.00
2188;BME280;1100;52.014;8.540;2023-11-18T10:57:44;100718.88;;;5.14;100.00
2188;BME280;1100;52.014;8.540;2023-11-18T11:00:10;100721.31;;;5.30;100.00
2188;BME280;1100;52.014;8.540;2023-11-18T11:02:39;100710.72;;;5.43;100.00
2188;BME280;1100;52.014;8.540;2023-11-18T11:05:10;100711.16;;;5.53;100.00
2188;BME280;1100;52.014;8.540;2023-11-18T11:07:42;100716.72;;;5.60;100.00
2188;BME280;1100;52.014;8.540;2023-11-18T11:10:08;100706.09;;;5.66;100.00
2188;BME280;1100;52.014;8.540;2023-11-18T11:12:39;100712.81;;;5.72;100.00
2188;BME280;1100;52.014;8.540;2023-11-18T11:15:18;100705.31;;;5.76;100.00
2188;BME280;1100;52.014;8.540;2023-11-18T11:17:51;100693.91;;;5.81;100.00
2188;BME280;1100;52.014;8.540;2023-11-18T11:20:21;100690.78;;;5.86;100.00
2188;BME280;1100;52.014;8.540;2023-11-18T11:23:18;100697.06;;;5.91;100.00
2188;BME280;1100;52.014;8.540;2023-11-18T11:26:13;100684.06;;;5.95;100.00
2188;BME280;1100;52.014;8.540;2023-11-18T11:29:18;100681.72;;;5.97;100.00
2188;BME280;1100;52.014;8.540;2023-11-18T11:32:26;100672.63;;;6.00;100.00
2188;BME280;1100;52.014;8.540;2023-11-18T11:35:01;100672.25;;;6.02;100.00
2188;BME280;1100;52.014;8.540;2023-11-18T11:37:33;100656.09;;;6.00;100.00
2188;BME280;1100;52.014;8.540;2023-11-18T11:40:02;100648.19;;;5.95;100.00
2188;BME280;1100;52.014;8.540;2023-11-18T11:42:34;100646.22;;;5.95;100.00
2188;BME280;1100;52.014;8.540;2023-11-18T11:45:00;100643.06;;;5.93;100.00
2188;BME280;1100;52.014;8.540;2023-11-18T11:47:28;100652.94;;;5.91;100.00
2188;BME280;1100;52.014;8.540;2023-11-18T11:50:11;100669.88;;;5.89;100.00
2188;BME280;1100;52.014;8.540;2023-11-18T11:52:44;100667.88;;;5.82;100.00
2188;BME280;1100;52.014;8.540;2023-11-18T11:58:01;100680.88;;;5.74;100.00
2188;BME280;1100;52.014;8.540;2023-11-18T12:00:27;100669.44;;;5.76;100.00
2188;BME280;1100;52.014;8.540;2023-11-18T12:03:00;100661.16;;;5.69;100.00
2188;BME280;1100;52.014;8.540;2023-11-18T12:05:29;100671.00;;;5.70;100.00
2188;BME280;1100;52.014;8.540;2023-11-18T12:07:59;100659.19;;;5.66;100.00
2188;BME280;1100;52.014;8.540;2023-11-18T12:10:30;100652.50;;;5.63;100.00
2188;BME280;1100;52.014;8.540;2023-11-18T12:13:11;100660.78;;;5.63;100.00
2188;BME280;1100;52.014;8.540;2023-11-18T12:15:53;100650.13;;;5.61;100.00
2188;BME280;1100;52.014;8.540;2023-11-18T12:18:20;100642.63;;;5.62;100.00
2188;BME280;1100;52.014;8.540;2023-11-18T12:20:47;100641.47;;;5.63;100.00
2188;BME280;1100;52.014;8.540;2023-11-18T12:23:14;100630.41;;;5.59;100.00
2188;BME280;1100;52.014;8.540;2023-11-18T12:25:40;100627.25;;;5.57;100.00
2188;BME280;1100;52.014;8.540;2023-11-18T12:28:16;100620.56;;;5.55;100.00
2188;BME280;1100;52.014;8.540;2023-11-18T12:30:43;100610.31;;;5.52;100.00
2188;BME280;1100;52.014;8.540;2023-11-18T12:33:17;100604.81;;;5.52;100.00
2188;BME280;1100;52.014;8.540;2023-11-18T12:46:52;100626.44;;;5.35;100.00
2188;BME280;1100;52.014;8.540;2023-11-18T12:49:19;100612.63;;;5.31;100.00
2188;BME280;1100;52.014;8.540;2023-11-18T12:51:52;100605.94;;;5.25;100.00
2188;BME280;1100;52.014;8.540;2023-11-18T12:54:19;100587.78;;;5.24;100.00
2188;BME280;1100;52.014;8.540;2023-11-18T12:56:45;100585.03;;;5.20;100.00
2188;BME280;1100;52.014;8.540;2023-11-18T12:59:17;100597.22;;;5.19;100.00
2188;BME280;1100;52.014;8.540;2023-11-18T13:01:49;100583.47;;;5.16;100.00
2188;BME280;1100;52.014;8.540;2023-11-18T13:04:24;100570.06;;;5.14;100.00
2188;BME280;1100;52.014;8.540;2023-11-18T13:06:50;100566.09;;;5.11;100.00
2188;BME280;1100;52.014;8.540;2023-11-18T13:09:17;100565.34;;;5.11;100.00
2188;BME280;1100;52.014;8.540;2023-11-18T13:11:54;100555.88;;;5.12;100.00
2188;BME280;1100;52.014;8.540;2023-11-18T13:14:28;100548.78;;;5.07;100.00
2188;BME280;1100;52.014;8.540;2023-11-18T13:16:55;100541.69;;;5.03;100.00
2188;BME280;1100;52.014;8.540;2023-11-18T13:21:51;100549.50;;;4.90;100.00
2188;BME280;1100;52.014;8.540;2023-11-18T13:24:16;100543.19;;;4.82;100.00
2188;BME280;1100;52.014;8.540;2023-11-18T13:26:42;100543.16;;;4.74;100.00
2188;BME280;1100;52.014;8.540;2023-11-18T13:29:08;100536.06;;;4.70;100.00
2188;BME280;1100;52.014;8.540;2023-11-18T13:31:34;100528.59;;;4.67;100.00
2188;BME280;1100;52.014;8.540;2023-11-18T13:34:00;100528.94;;;4.61;100.00
2188;BME280;1100;52.014;8.540;2023-11-18T13:36:25;100528.56;;;4.59;100.00